createdAt,value
2022-10-03T00:02:17.670Z,11.75
2022-10-03T00:05:17.674Z,11.75
2022-10-03T00:08:17.676Z,11.75
2022-10-03T00:11:17.673Z,11.7
2022-10-03T00:14:17.675Z,11.7
2022-10-03T00:17:17.674Z,11.7
2022-10-03T00:20:17.675Z,11.7
2022-10-03T00:23:17.677Z,11.7
2022-10-03T00:26:17.681Z,11.65
2022-10-03T00:29:17.672Z,11.65
2022-10-03T00:32:17.677Z,11.65
2022-10-03T00:35:17.677Z,11.65
2022-10-03T00:38:17.674Z,11.65
2022-10-03T00:41:17.678Z,11.65
2022-10-03T00:44:17.679Z,11.6
2022-10-03T00:47:17.688Z,11.55
2022-10-03T00:50:17.676Z,11.55
2022-10-03T00:53:17.682Z,11.55
2022-10-03T00:56:17.675Z,11.55
2022-10-03T00:59:17.682Z,11.55
2022-10-03T01:02:17.737Z,11.55
2022-10-03T01:05:17.680Z,11.5
2022-10-03T01:08:17.680Z,11.45
2022-10-03T01:11:17.685Z,11.45
2022-10-03T01:14:17.676Z,11.45
2022-10-03T01:17:17.691Z,11.45
2022-10-03T01:20:17.685Z,11.45
2022-10-03T01:23:17.685Z,11.4
2022-10-03T01:26:17.684Z,11.35
2022-10-03T01:29:17.686Z,11.35
2022-10-03T01:32:17.684Z,11.35
2022-10-03T01:35:17.682Z,11.35
2022-10-03T01:38:17.687Z,11.3
2022-10-03T01:41:17.689Z,11.3
2022-10-03T01:44:17.687Z,11.3
2022-10-03T01:47:17.690Z,11.25
2022-10-03T01:50:17.697Z,11.25
2022-10-03T01:53:17.694Z,11.25
2022-10-03T01:56:17.693Z,11.2
2022-10-03T01:59:17.680Z,11.2
2022-10-03T02:02:17.771Z,11.15
2022-10-03T02:05:17.704Z,11.15
2022-10-03T02:08:17.705Z,11.15
2022-10-03T02:11:17.702Z,11.15
2022-10-03T02:14:17.713Z,11.1
2022-10-03T02:17:17.703Z,11.1
2022-10-03T02:20:17.704Z,11.1
2022-10-03T02:23:17.712Z,11.1
2022-10-03T02:26:17.707Z,11.1
2022-10-03T02:29:17.713Z,11.1
2022-10-03T02:32:17.717Z,11.1
2022-10-03T02:35:17.721Z,11.1
2022-10-03T02:38:17.706Z,11.1
2022-10-03T02:41:17.716Z,11.1
2022-10-03T02:44:17.713Z,11.1
2022-10-03T02:47:17.717Z,11.1
2022-10-03T02:50:17.712Z,11.1
2022-10-03T02:53:17.716Z,11.1
2022-10-03T02:56:17.717Z,11.1
2022-10-03T02:59:17.718Z,11.1
2022-10-03T03:02:17.795Z,11.1
2022-10-03T03:05:17.724Z,11.1
2022-10-03T03:08:17.716Z,11.1
2022-10-03T03:11:17.720Z,11.1
2022-10-03T03:14:17.727Z,11.1
2022-10-03T03:17:17.723Z,11.05
2022-10-03T03:20:17.724Z,11
2022-10-03T03:23:17.729Z,11
2022-10-03T03:26:17.724Z,11
2022-10-03T03:29:17.712Z,11
2022-10-03T03:32:17.727Z,11
2022-10-03T03:35:17.769Z,11
2022-10-03T03:38:17.732Z,11
2022-10-03T03:41:17.728Z,11
2022-10-03T03:44:17.724Z,11
2022-10-03T03:47:17.726Z,11
2022-10-03T03:50:17.729Z,11
2022-10-03T03:53:17.722Z,11
2022-10-03T03:56:17.729Z,10.95
2022-10-03T03:59:17.728Z,10.95
2022-10-03T04:02:17.735Z,10.95
2022-10-03T04:05:17.728Z,10.95
2022-10-03T04:08:17.736Z,10.9
2022-10-03T04:11:17.732Z,10.9
2022-10-03T04:14:17.727Z,10.9
2022-10-03T04:17:17.729Z,10.9
2022-10-03T04:20:17.728Z,10.9
2022-10-03T04:23:17.733Z,10.9
2022-10-03T04:26:17.732Z,10.9
2022-10-03T04:29:17.725Z,10.9
2022-10-03T04:32:17.735Z,10.85
2022-10-03T04:35:17.741Z,10.85
2022-10-03T04:38:17.733Z,10.8
2022-10-03T04:41:17.733Z,10.85
2022-10-03T04:44:17.783Z,10.9
2022-10-03T04:47:17.743Z,10.9
2022-10-03T04:50:17.742Z,10.9
2022-10-03T04:53:17.743Z,10.9
2022-10-03T04:56:17.744Z,10.9
2022-10-03T04:59:17.740Z,10.9
2022-10-03T05:02:17.785Z,10.9
2022-10-03T05:05:17.743Z,10.9
2022-10-03T05:08:17.743Z,10.9
2022-10-03T05:11:17.744Z,10.95
2022-10-03T05:14:17.743Z,11
2022-10-03T05:17:17.747Z,11
2022-10-03T05:20:17.760Z,11
2022-10-03T05:23:17.750Z,11
2022-10-03T05:26:43.417Z,11
2022-10-03T05:29:17.742Z,11
2022-10-03T05:32:17.753Z,11
2022-10-03T05:35:17.753Z,11
2022-10-03T05:38:17.743Z,11
2022-10-03T05:41:18.586Z,11.05
2022-10-03T05:44:17.751Z,11.05
2022-10-03T05:47:17.749Z,11.05
2022-10-03T05:50:18.353Z,11.05
2022-10-03T05:53:17.749Z,11.05
2022-10-03T05:56:17.757Z,11.05
2022-10-03T05:59:17.770Z,11.1
2022-10-03T06:02:17.823Z,11.15
2022-10-03T06:05:17.761Z,11.15
2022-10-03T06:08:17.750Z,11.15
2022-10-03T06:11:17.751Z,11.15
2022-10-03T06:14:17.750Z,11.2
2022-10-03T06:17:17.758Z,11.2
2022-10-03T06:20:17.751Z,11.2
2022-10-03T06:23:17.760Z,11.2
2022-10-03T06:26:17.754Z,11.2
2022-10-03T06:29:17.755Z,11.25
2022-10-03T06:32:17.757Z,11.25
2022-10-03T06:35:17.758Z,11.25
2022-10-03T06:38:17.755Z,11.25
2022-10-03T06:41:17.756Z,11.25
2022-10-03T06:44:17.756Z,11.25
2022-10-03T06:47:17.760Z,11.25
2022-10-03T06:50:17.759Z,11.25
2022-10-03T06:53:17.760Z,11.25
2022-10-03T06:56:17.760Z,11.25
2022-10-03T06:59:17.762Z,11.25
2022-10-03T07:02:17.815Z,11.3
2022-10-03T07:05:17.769Z,11.3
2022-10-03T07:08:17.759Z,11.4
2022-10-03T07:11:17.769Z,11.4
2022-10-03T07:14:17.787Z,11.45
2022-10-03T07:17:17.815Z,11.45
2022-10-03T07:20:17.757Z,11.55
2022-10-03T07:23:17.747Z,11.55
2022-10-03T07:26:17.764Z,11.6
2022-10-03T07:29:17.769Z,11.6
2022-10-03T07:32:17.763Z,11.7
2022-10-03T07:35:17.769Z,11.7
2022-10-03T07:38:17.758Z,11.75
2022-10-03T07:41:17.760Z,11.75
2022-10-03T07:44:17.760Z,11.75
2022-10-03T07:47:17.764Z,11.75
2022-10-03T07:50:17.767Z,11.8
2022-10-03T07:53:17.769Z,11.8
2022-10-03T07:56:17.767Z,11.8
2022-10-03T07:59:17.766Z,11.8
2022-10-03T08:02:17.819Z,11.8
2022-10-03T08:05:17.764Z,11.85
2022-10-03T08:08:17.791Z,11.9
2022-10-03T08:11:17.769Z,11.9
2022-10-03T08:14:17.801Z,11.9
2022-10-03T08:17:17.768Z,11.95
2022-10-03T08:20:17.790Z,11.95
2022-10-03T08:23:17.764Z,11.95
2022-10-03T08:26:17.793Z,12.05
2022-10-03T08:29:17.768Z,12.05
2022-10-03T08:32:17.774Z,12.1
2022-10-03T08:35:17.775Z,12.15
2022-10-03T08:38:17.793Z,12.15
2022-10-03T08:41:17.770Z,12.25
2022-10-03T08:44:17.775Z,12.3
2022-10-03T08:47:17.768Z,12.35
2022-10-03T08:50:17.772Z,12.45
2022-10-03T08:53:17.773Z,12.5
2022-10-03T08:56:17.780Z,12.55
2022-10-03T08:59:17.778Z,12.7
2022-10-03T09:02:17.831Z,12.8
2022-10-03T09:05:17.778Z,12.9
2022-10-03T09:08:17.775Z,13.05
2022-10-03T09:11:17.771Z,13.25
2022-10-03T09:14:17.771Z,13.35
2022-10-03T09:17:17.781Z,13.4
2022-10-03T09:20:17.842Z,13.35
2022-10-03T09:23:17.788Z,13.35
2022-10-03T09:26:17.780Z,13.4
2022-10-03T09:29:17.777Z,13.45
2022-10-03T09:32:17.773Z,13.5
2022-10-03T09:35:17.779Z,13.55
2022-10-03T09:38:17.778Z,13.55
2022-10-03T09:41:17.775Z,13.6
2022-10-03T09:44:17.799Z,13.55
2022-10-03T09:47:17.774Z,13.55
2022-10-03T09:50:17.800Z,13.6
2022-10-03T09:53:17.777Z,13.6
2022-10-03T09:56:17.784Z,13.7
2022-10-03T09:59:17.774Z,13.75
2022-10-03T10:02:17.783Z,13.85
2022-10-03T10:05:17.780Z,13.9
2022-10-03T10:08:17.778Z,13.9
2022-10-03T10:11:17.801Z,13.9
2022-10-03T10:14:17.780Z,13.95
2022-10-03T10:17:17.800Z,13.9
2022-10-03T10:20:17.781Z,13.9
2022-10-03T10:23:17.784Z,13.9
2022-10-03T10:26:17.782Z,13.9
2022-10-03T10:29:17.787Z,13.9
2022-10-03T10:32:21.246Z,13.85
2022-10-03T10:35:17.808Z,13.9
2022-10-03T10:38:17.787Z,13.9
2022-10-03T10:41:17.785Z,13.95
2022-10-03T10:44:17.787Z,13.95
2022-10-03T10:47:17.788Z,14
2022-10-03T10:50:17.784Z,14.05
2022-10-03T10:53:17.803Z,14.15
2022-10-03T10:56:17.789Z,14.15
2022-10-03T10:59:17.785Z,14.2
2022-10-03T11:02:17.779Z,14.2
2022-10-03T11:05:17.811Z,14.2
2022-10-03T11:08:17.804Z,14.2
2022-10-03T11:11:17.812Z,14.15
2022-10-03T11:14:17.792Z,14.15
2022-10-03T11:17:17.793Z,14.15
2022-10-03T11:20:17.794Z,14.2
2022-10-03T11:23:17.788Z,14.2
2022-10-03T11:26:17.812Z,14.3
2022-10-03T11:29:17.789Z,14.3
2022-10-03T11:32:17.795Z,14.3
2022-10-03T11:35:17.802Z,14.35
2022-10-03T11:38:17.809Z,14.35
2022-10-03T11:41:17.789Z,14.45
2022-10-03T11:44:17.814Z,14.55
2022-10-03T11:47:17.793Z,14.55
2022-10-03T11:50:17.798Z,14.55
2022-10-03T11:53:17.793Z,14.6
2022-10-03T11:56:17.802Z,14.6
2022-10-03T11:59:17.789Z,14.65
2022-10-03T12:02:17.837Z,14.7
2022-10-03T12:05:17.798Z,14.7
2022-10-03T12:08:17.800Z,14.7
2022-10-03T12:11:17.794Z,14.7
2022-10-03T12:14:17.795Z,14.75
2022-10-03T12:17:17.797Z,14.75
2022-10-03T12:20:17.801Z,14.75
2022-10-03T12:23:17.790Z,14.75
2022-10-03T12:26:17.796Z,14.75
2022-10-03T12:29:17.819Z,14.7
2022-10-03T12:32:17.896Z,14.75
2022-10-03T12:35:17.795Z,14.8
2022-10-03T12:38:17.793Z,14.8
2022-10-03T12:41:17.803Z,14.8
2022-10-03T12:44:17.803Z,14.85
2022-10-03T12:47:27.584Z,14.95
2022-10-03T12:50:17.795Z,14.95
2022-10-03T12:53:17.807Z,15
2022-10-03T12:56:17.792Z,15.15
2022-10-03T12:59:17.804Z,15.25
2022-10-03T13:02:17.830Z,15.25
2022-10-03T13:05:17.801Z,15.35
2022-10-03T13:08:17.798Z,15.4
2022-10-03T13:11:17.829Z,15.45
2022-10-03T13:14:17.802Z,15.5
2022-10-03T13:17:17.801Z,15.5
2022-10-03T13:20:17.801Z,15.45
2022-10-03T13:23:17.793Z,15.45
2022-10-03T13:26:18.544Z,15.4
2022-10-03T13:29:17.904Z,15.45
2022-10-03T13:32:17.920Z,15.45
2022-10-03T13:35:17.904Z,15.45
2022-10-03T13:38:17.909Z,15.45
2022-10-03T13:41:17.911Z,15.45
2022-10-03T13:44:17.915Z,15.4
2022-10-03T13:47:17.921Z,15.35
2022-10-03T13:50:17.908Z,15.3
2022-10-03T13:53:17.911Z,15.3
2022-10-03T13:56:17.923Z,15.25
2022-10-03T13:59:17.919Z,15.25
2022-10-03T14:02:17.953Z,15.2
2022-10-03T14:05:17.910Z,15.15
2022-10-03T14:08:17.909Z,15.15
2022-10-03T14:11:17.916Z,15.15
2022-10-03T14:14:17.910Z,15.15
2022-10-03T14:17:17.912Z,15.1
2022-10-03T14:20:17.913Z,15.1
2022-10-03T14:23:17.913Z,15.05
2022-10-03T14:26:17.912Z,15.05
2022-10-03T14:29:17.913Z,15
2022-10-03T14:35:17.915Z,14.95
2022-10-03T14:38:17.911Z,14.95
2022-10-03T14:41:17.919Z,14.95
2022-10-03T14:44:17.918Z,14.9
2022-10-03T14:47:17.918Z,14.9
2022-10-03T14:50:17.914Z,14.9
2022-10-03T14:53:17.922Z,14.9
2022-10-03T14:56:17.918Z,14.9
2022-10-03T14:59:17.915Z,14.9
2022-10-03T15:02:20.290Z,14.9
2022-10-03T15:05:17.920Z,14.9
2022-10-03T15:08:17.916Z,14.85
2022-10-03T15:11:17.921Z,14.85
2022-10-03T15:14:17.916Z,14.85
2022-10-03T15:17:17.915Z,14.85
2022-10-03T15:20:17.919Z,14.85
2022-10-03T15:23:17.920Z,14.8
2022-10-03T15:26:17.924Z,14.75
2022-10-03T15:29:17.922Z,14.75
2022-10-03T15:32:17.928Z,14.75
2022-10-03T15:35:17.915Z,14.75
2022-10-03T15:38:17.919Z,14.75
2022-10-03T15:41:17.923Z,14.7
2022-10-03T15:44:17.921Z,14.7
2022-10-03T15:47:17.921Z,14.7
2022-10-03T15:50:17.923Z,14.7
2022-10-03T15:53:35.438Z,14.7
2022-10-03T15:56:17.945Z,14.7
2022-10-03T15:59:17.928Z,14.65
2022-10-03T16:02:17.961Z,14.6
2022-10-03T16:05:17.920Z,14.6
2022-10-03T16:08:17.926Z,14.55
2022-10-03T16:11:17.924Z,14.5
2022-10-03T16:14:17.924Z,14.5
2022-10-03T16:17:17.924Z,14.45
2022-10-03T16:20:17.933Z,14.45
2022-10-03T16:23:17.922Z,14.45
2022-10-03T16:26:17.932Z,14.45
2022-10-03T16:29:17.949Z,14.35
2022-10-03T16:32:17.933Z,14.35
2022-10-03T16:35:17.924Z,14.35
2022-10-03T16:38:17.997Z,14.3
2022-10-03T16:41:17.921Z,14.3
2022-10-03T16:44:17.940Z,14.25
2022-10-03T16:50:17.936Z,14.2
2022-10-03T16:56:17.938Z,14.2
2022-10-03T17:02:18.094Z,14.15
2022-10-03T17:05:17.933Z,14.15
2022-10-03T17:08:37.169Z,14.15
2022-10-03T17:11:19.508Z,14.1
2022-10-03T17:14:17.931Z,14.1
2022-10-03T17:17:17.936Z,14.1
2022-10-03T17:20:17.955Z,14.05
2022-10-03T17:26:17.956Z,14.05
2022-10-03T17:29:17.957Z,14
2022-10-03T17:32:17.932Z,14
2022-10-03T17:35:17.954Z,14
2022-10-03T17:38:30.777Z,13.95
2022-10-03T17:41:17.933Z,13.95
2022-10-03T17:44:17.959Z,13.5
2022-10-03T17:47:17.943Z,13.4
2022-10-03T17:50:17.955Z,13.4
2022-10-03T17:53:17.938Z,13.3
2022-10-03T17:56:17.945Z,13.3
2022-10-03T17:59:17.955Z,13.3
2022-10-03T18:02:17.967Z,13.3
2022-10-03T18:05:17.930Z,13.2
2022-10-03T18:08:18.056Z,13.2
2022-10-03T18:11:20.716Z,13.2
2022-10-03T18:14:17.940Z,13.1
2022-10-03T18:17:17.945Z,13.1
2022-10-03T18:20:17.955Z,13.1
2022-10-03T18:23:27.168Z,13
2022-10-03T18:26:20.190Z,13
2022-10-03T18:29:17.936Z,13
2022-10-03T18:32:17.961Z,12.9
2022-10-03T18:35:17.955Z,12.9
2022-10-03T18:38:18.062Z,12.9
2022-10-03T18:41:17.946Z,12.8
2022-10-03T18:44:17.963Z,12.8
2022-10-03T18:47:17.978Z,12.8
2022-10-03T18:50:17.960Z,12.8
2022-10-03T18:53:17.964Z,12.7
2022-10-03T18:56:17.962Z,12.7
2022-10-03T18:59:17.957Z,12.7
2022-10-03T19:02:17.991Z,12.6
2022-10-03T19:05:17.956Z,12.6
2022-10-03T19:08:17.976Z,12.6
2022-10-03T19:11:17.963Z,12.5
2022-10-03T19:14:17.960Z,12.5
2022-10-03T19:17:17.961Z,12.5
2022-10-03T19:20:17.949Z,12.4
2022-10-03T19:23:17.962Z,12.4
2022-10-03T19:29:17.957Z,12.4
2022-10-03T19:32:17.960Z,12.3
2022-10-03T19:35:17.965Z,12.3
2022-10-03T19:38:17.960Z,12.3
2022-10-03T19:41:17.958Z,12.3
2022-10-03T19:44:17.957Z,12.2
2022-10-03T19:47:17.962Z,12.2
2022-10-03T19:50:17.963Z,12.2
2022-10-03T19:53:17.961Z,12.2
2022-10-03T19:56:17.966Z,12.1
2022-10-03T19:59:17.962Z,12.1
2022-10-03T20:02:18.012Z,12.1
2022-10-03T20:05:17.992Z,12.1
2022-10-03T20:08:18.103Z,12.1
2022-10-03T20:11:17.959Z,12
2022-10-03T20:14:17.974Z,12
2022-10-03T20:17:17.957Z,12
2022-10-03T20:20:17.964Z,12
2022-10-03T20:26:17.961Z,11.9
2022-10-03T20:29:17.969Z,11.9
2022-10-03T20:32:18.030Z,11.9
2022-10-03T20:35:17.966Z,11.9
2022-10-03T20:38:17.956Z,11.8
2022-10-03T20:41:17.966Z,11.8
2022-10-03T20:44:17.980Z,11.8
2022-10-03T20:47:17.961Z,11.8
2022-10-03T20:50:17.963Z,11.7
2022-10-03T20:53:17.967Z,11.7
2022-10-03T20:56:17.970Z,11.7
2022-10-03T20:59:17.964Z,11.7
2022-10-03T21:02:18.036Z,11.7
2022-10-03T21:05:17.973Z,11.6
2022-10-03T21:08:17.969Z,11.6
2022-10-03T21:11:17.976Z,11.6
2022-10-03T21:14:17.967Z,11.6
2022-10-03T21:17:17.975Z,11.6
2022-10-03T21:20:17.969Z,11.5
2022-10-03T21:23:17.967Z,11.5
2022-10-03T21:26:17.972Z,11.5
2022-10-03T21:29:17.975Z,11.5
2022-10-03T21:32:17.969Z,11.5
2022-10-03T21:35:17.975Z,11.5
2022-10-03T21:38:17.980Z,11.4
2022-10-03T21:41:17.972Z,11.4
2022-10-03T21:44:17.972Z,11.4
2022-10-03T21:47:17.974Z,11.4
2022-10-03T21:50:17.979Z,11.4
2022-10-03T21:53:17.978Z,11.3
2022-10-03T21:56:17.975Z,11.3
2022-10-03T21:59:17.977Z,11.3
2022-10-03T22:02:18.041Z,11.3
2022-10-03T22:05:17.979Z,11.3
2022-10-03T22:08:17.979Z,11.3
2022-10-03T22:11:17.973Z,11.3
2022-10-03T22:14:17.981Z,11.3
2022-10-03T22:17:17.977Z,11.2
2022-10-03T22:20:17.972Z,11.2
2022-10-03T22:23:17.981Z,11.2
2022-10-03T22:26:17.988Z,11.2
2022-10-03T22:29:22.111Z,11.2
2022-10-03T22:32:17.986Z,11.2
2022-10-03T22:35:17.980Z,11.2
2022-10-03T22:38:17.979Z,11.1
2022-10-03T22:41:17.984Z,11.1
2022-10-03T22:44:17.979Z,11.1
2022-10-03T22:47:17.985Z,11.1
2022-10-03T22:50:17.977Z,11
2022-10-03T22:53:17.988Z,11
2022-10-03T22:56:17.980Z,11
2022-10-03T22:59:17.983Z,11
2022-10-03T23:02:17.989Z,11
2022-10-03T23:05:17.983Z,11
2022-10-03T23:08:17.987Z,11
2022-10-03T23:11:17.982Z,11
2022-10-03T23:14:17.984Z,10.9
2022-10-03T23:17:17.986Z,10.9
2022-10-03T23:20:17.993Z,10.9
2022-10-03T23:23:17.989Z,10.9
2022-10-03T23:26:17.989Z,10.9
2022-10-03T23:29:17.994Z,10.9
2022-10-03T23:32:17.990Z,10.9
2022-10-03T23:35:17.991Z,10.8
2022-10-03T23:38:17.988Z,10.8
2022-10-03T23:41:17.986Z,10.8
2022-10-03T23:44:17.989Z,10.8
2022-10-03T23:47:17.994Z,10.8
2022-10-03T23:50:17.998Z,10.8
2022-10-03T23:53:17.991Z,10.8
2022-10-03T23:56:17.989Z,10.8
2022-10-03T23:59:18.003Z,10.8
